Time;durP1;ratioP1;P1;durP2;ratioP2;P2;SDS_P1;SDS_P2;PMS_P1;PMS_P2;Temp;Humidity;BMP_temperature;BMP_pressure;BME280_temperature;BME280_humidity;BME280_pressure;Samples;Min_cycle;Max_cycle;Signal;HPM_P1;HPM_P2
2022/03/01 08:54:03;;;;;;;10.47;9.33;;;;;;;3.69;53.40;100243.19;5589334;23;20054;-95
2022/03/01 09:06:49;;;;;;;12.93;11.57;;;;;;;4.52;52.99;100352.66;5467518;23;20045;-95
2022/03/01 09:17:02;;;;;;;16.60;13.73;;;;;;;3.21;53.34;100159.00;5534128;23;20069;-96
2022/03/01 09:19:28;;;;;;;12.70;10.77;;;;;;;2.60;52.93;100023.59;5012295;28;20061;-96
2022/03/01 09:22:03;;;;;;;12.00;10.30;;;;;;;2.89;52.68;100104.81;5014589;28;20073;-95
2022/03/01 09:50:31;;;;;;;12.93;11.40;;;;;;;2.61;53.13;100021.81;5950966;23;20350;-96
2022/03/01 10:07:25;;;;;;;10.50;9.40;;;;;;;3.65;51.82;100059.81;5478267;23;20077;-96
2022/03/01 10:09:56;;;;;;;11.73;10.53;;;;;;;3.21;52.01;100063.28;4995545;28;20026;-96
2022/03/01 10:12:29;;;;;;;11.00;9.80;;;;;;;2.82;51.26;99971.47;4993950;28;20046;-96
2022/03/01 10:15:06;;;;;;;17.77;11.93;;;;;;;4.40;51.38;100187.94;4977015;28;20023;-96
2022/03/01 10:20:14;;;;;;;12.30;11.07;;;;;;;3.35;51.58;100057.81;5037347;28;20056;-96
2022/03/01 10:22:48;;;;;;;13.60;12.17;;;;;;;3.72;50.69;100053.16;5022765;28;20021;-96
2022/03/01 10:25:18;;;;;;;12.20;10.93;;;;;;;6.12;51.56;100463.72;5022939;28;20026;-96
2022/03/01 10:27:51;;;;;;;11.43;10.27;;;;;;;3.13;51.24;100001.25;5021456;28;20028;-96
2022/03/01 10:30:25;;;;;;;12.20;10.93;;;;;;;6.13;51.49;100460.13;5079639;23;20112;-96
2022/03/01 10:33:01;;;;;;;12.63;11.33;;;;;;;3.25;51.12;100041.22;5027445;28;20076;-96
2022/03/01 10:35:30;;;;;;;13.00;11.20;;;;;;;3.81;51.32;100133.41;5181066;23;20026;-96
2022/03/01 10:37:55;;;;;;;12.67;11.07;;;;;;;3.38;50.85;100012.38;4978280;28;20035;-96
2022/03/01 10:40:27;;;;;;;11.93;10.73;;;;;;;6.04;50.85;100425.03;4990295;28;20031;-96
2022/03/01 10:45:49;;;;;;;11.20;9.97;;;;;;;6.26;50.08;100429.31;5055690;23;20073;-96
2022/03/01 10:48:27;;;;;;;13.57;11.30;;;;;;;3.42;49.81;99990.31;4988581;28;20038;-96
2022/03/01 10:51:08;;;;;;;14.32;10.63;;;;;;;6.41;48.99;100478.81;4994381;28;20035;-96
2022/03/01 10:53:39;;;;;;;13.43;10.52;;;;;;;3.49;49.99;99975.81;5104870;23;20010;-96
2022/03/01 10:56:09;;;;;;;14.68;12.32;;;;;;;4.83;50.42;100162.72;5509207;23;20054;-96
2022/03/01 10:58:38;;;;;;;14.17;12.67;;;;;;;3.53;50.02;99977.22;4995405;28;20027;-96
2022/03/01 11:01:07;;;;;;;16.63;14.33;;;;;;;4.08;49.78;100014.59;5008126;28;20054;-96
2022/03/01 11:06:10;;;;;;;10.57;9.20;;;;;;;6.44;50.29;100403.31;5832705;23;20066;-96
2022/03/01 11:16:25;;;;;;;12.07;10.33;;;;;;;3.85;50.05;100031.28;5119896;23;20072;-96
2022/03/01 11:19:03;;;;;;;12.27;10.73;;;;;;;3.35;50.17;99953.41;5021495;28;20018;-96
2022/03/01 11:21:31;;;;;;;12.20;9.97;;;;;;;3.50;49.96;99974.88;5015933;28;20038;-96
2022/03/01 11:23:57;;;;;;;12.43;11.13;;;;;;;4.57;49.88;100091.63;5014961;28;20106;-96
2022/03/01 11:26:23;;;;;;;12.93;11.53;;;;;;;3.34;50.16;99927.44;5007615;28;20018;-96
2022/03/01 11:36:35;;;;;;;17.93;13.50;;;;;;;6.72;49.52;100370.31;5456258;23;20072;-96
2022/03/01 11:39:08;;;;;;;12.70;11.40;;;;;;;5.03;49.24;100170.59;5012341;28;20113;-96
2022/03/01 11:41:42;;;;;;;13.23;11.82;;;;;;;5.64;49.35;100207.34;5007113;28;20025;-96
2022/03/01 11:44:10;;;;;;;14.73;11.37;;;;;;;3.75;49.36;99934.56;5013216;28;20014;-96
2022/03/01 11:46:41;;;;;;;14.25;12.10;;;;;;;5.12;49.33;100127.09;5016090;28;20036;-94
2022/03/01 11:49:08;;;;;;;12.50;11.20;;;;;;;3.99;49.57;99929.94;5007209;28;20036;-96
2022/03/01 11:51:43;;;;;;;15.95;12.80;;;;;;;5.14;48.97;100122.56;5003597;28;20045;-96
2022/03/01 11:54:19;;;;;;;13.73;11.95;;;;;;;6.30;47.71;100246.31;4988968;28;20030;-96
2022/03/01 11:56:50;;;;;;;14.65;11.63;;;;;;;4.12;48.55;99917.53;4986224;28;20487;-96
2022/03/01 11:59:17;;;;;;;15.32;10.15;;;;;;;4.19;48.91;99917.03;5009643;28;20067;-96
2022/03/01 12:01:42;;;;;;;11.23;10.05;;;;;;;6.88;48.68;100343.56;5003091;28;20040;-96
2022/03/01 12:04:10;;;;;;;11.38;10.18;;;;;;;5.74;48.80;100171.56;5002906;28;20042;-96
2022/03/01 12:06:38;;;;;;;12.45;9.27;;;;;;;5.41;48.84;100128.13;5002627;28;20022;-96
2022/03/01 12:09:06;;;;;;;11.02;9.70;;;;;;;6.32;48.70;100312.56;5002240;28;20034;-96
2022/03/01 12:11:44;;;;;;;10.85;9.75;;;;;;;3.73;48.53;99884.25;4985281;28;20057;-96
2022/03/01 12:14:22;;;;;;;10.57;9.20;;;;;;;3.91;49.56;99965.50;4987500;28;20061;-96
2022/03/01 12:16:52;;;;;;;11.63;9.60;;;;;;;3.52;49.27;99892.03;4989760;28;20034;-96
2022/03/01 12:19:23;;;;;;;11.27;9.93;;;;;;;4.64;49.12;100074.47;4991138;28;20034;-96
2022/03/01 12:21:53;;;;;;;13.15;10.38;;;;;;;3.56;49.29;99869.94;4994061;28;20014;-96
2022/03/01 12:24:21;;;;;;;12.55;10.73;;;;;;;3.48;49.58;99904.50;4989794;28;20034;-96
2022/03/01 12:29:35;;;;;;;12.70;11.40;;;;;;;5.79;49.42;100225.34;5029993;23;20042;-96
2022/03/01 12:32:05;;;;;;;12.75;10.73;;;;;;;3.38;49.36;99864.44;4996802;28;20011;-95
2022/03/01 12:34:32;;;;;;;13.43;10.60;;;;;;;6.19;49.20;100301.47;5003769;28;20088;-96
2022/03/01 12:37:03;;;;;;;17.02;13.15;;;;;;;4.29;49.50;100012.81;5013391;28;20091;-96
2022/03/01 12:39:29;;;;;;;13.55;10.90;;;;;;;6.55;49.05;100334.19;4988120;28;20037;-96
2022/03/01 12:41:56;;;;;;;14.05;11.25;;;;;;;5.42;48.96;100114.06;4985681;28;20047;-96
2022/03/01 12:44:27;;;;;;;11.52;10.32;;;;;;;3.56;48.88;99814.28;4987132;28;20034;-96
2022/03/01 12:46:53;;;;;;;11.77;10.57;;;;;;;6.61;48.88;100362.53;4980817;28;20030;-96
2022/03/01 12:49:19;;;;;;;12.38;10.45;;;;;;;6.62;49.32;100309.06;4977667;28;20889;-96
2022/03/01 12:51:47;;;;;;;11.93;10.65;;;;;;;6.57;48.89;100303.41;4970391;28;20026;-96
2022/03/01 12:54:17;;;;;;;14.13;11.25;;;;;;;6.05;49.13;100227.47;4990498;28;20034;-96
2022/03/01 12:56:56;;;;;;;11.43;10.23;;;;;;;5.19;48.85;100138.72;4998444;28;20034;-96
2022/03/01 12:59:24;;;;;;;25.60;11.82;;;;;;;6.42;49.49;100304.72;4990268;28;20034;-96
2022/03/01 13:01:52;;;;;;;10.57;9.47;;;;;;;5.66;49.39;100175.78;4979586;28;20403;-96
2022/03/01 13:04:21;;;;;;;11.02;9.30;;;;;;;5.85;49.37;100240.56;4979377;28;20180;-96
2022/03/01 13:06:47;;;;;;;11.73;10.32;;;;;;;6.35;49.29;100328.03;4983135;28;20472;-96
2022/03/01 13:09:13;;;;;;;14.70;11.57;;;;;;;5.51;49.59;100190.19;4978374;28;20484;-96
2022/03/01 13:11:39;;;;;;;16.80;14.17;;;;;;;6.33;49.49;100293.25;4979868;28;20026;-96
2022/03/01 13:14:07;;;;;;;15.10;10.02;;;;;;;6.35;49.94;100297.41;4977858;28;20030;-96
2022/03/01 13:16:43;;;;;;;13.07;11.52;;;;;;;5.66;49.52;100179.25;4995717;28;20026;-95
2022/03/01 13:19:13;;;;;;;11.73;10.20;;;;;;;6.35;50.15;100299.19;4976238;28;20023;-96
2022/03/01 13:21:46;;;;;;;13.00;10.65;;;;;;;6.36;49.83;100291.19;4970460;28;20030;-96
2022/03/01 13:24:19;;;;;;;13.87;11.80;;;;;;;5.58;49.45;100186.91;4961854;28;20035;-94
2022/03/01 13:26:46;;;;;;;11.68;10.48;;;;;;;5.79;49.65;100204.38;4962822;28;20107;-94
2022/03/01 13:29:17;;;;;;;11.82;10.05;;;;;;;6.22;50.05;100290.72;4976797;28;20077;-95
2022/03/01 13:31:43;;;;;;;11.38;9.95;;;;;;;5.91;50.01;100248.75;4976390;28;20041;-95
2022/03/01 13:34:09;;;;;;;14.87;11.97;;;;;;;5.87;50.21;100244.69;4978747;28;20098;-95
2022/03/01 13:36:39;;;;;;;14.97;12.10;;;;;;;6.19;50.63;100309.34;4956296;28;20085;-96
2022/03/01 13:39:11;;;;;;;14.45;11.80;;;;;;;6.21;50.44;100281.19;4955294;28;20109;-93
2022/03/01 13:41:42;;;;;;;14.77;11.83;;;;;;;6.23;50.24;100293.22;4957246;28;20023;-94
2022/03/01 13:44:29;;;;;;;15.40;12.25;;;;;;;6.03;50.75;100241.66;4961578;28;20062;-95
2022/03/01 13:47:07;;;;;;;17.90;15.80;;;;;;;6.28;50.57;100287.56;4956289;28;20062;-95
2022/03/01 13:49:41;;;;;;;18.37;15.30;;;;;;;6.04;50.82;100266.91;4956978;28;20035;-95
2022/03/01 13:55:09;;;;;;;17.83;15.63;;;;;;;6.13;50.93;100278.41;5016950;23;20127;-94
2022/03/01 13:57:44;;;;;;;15.02;13.20;;;;;;;5.52;51.04;100197.09;4975993;28;20034;-95
2022/03/01 14:00:17;;;;;;;17.20;14.63;;;;;;;4.43;51.15;100041.28;4975944;28;20124;-95
2022/03/01 14:02:59;;;;;;;17.80;15.13;;;;;;;5.69;51.17;100220.91;4963171;28;20037;-95
2022/03/01 14:05:26;;;;;;;15.27;13.60;;;;;;;4.46;51.01;100030.59;4963956;28;20121;-94
2022/03/01 14:08:08;;;;;;;19.67;16.03;;;;;;;5.60;50.46;100205.97;4970805;28;20039;-94
2022/03/01 14:10:39;;;;;;;18.15;13.57;;;;;;;5.06;51.10;100101.44;4957007;28;20037;-95
2022/03/01 14:13:08;;;;;;;16.85;15.07;;;;;;;6.31;50.84;100275.03;4955180;28;20097;-95
2022/03/01 14:15:36;;;;;;;12.73;10.40;;;;;;;5.11;50.19;100086.19;4956367;28;20045;-95
2022/03/01 14:18:03;;;;;;;13.32;11.35;;;;;;;6.51;49.65;100275.91;4959664;28;20034;-94
2022/03/01 14:20:29;;;;;;;13.00;11.10;;;;;;;6.32;50.01;100253.06;4956120;28;20038;-94
2022/03/01 14:22:55;;;;;;;14.27;10.80;;;;;;;6.31;50.24;100225.19;4956516;28;20499;-94
2022/03/01 14:25:21;;;;;;;15.13;11.30;;;;;;;6.56;49.95;100280.75;4973723;28;20176;-94
2022/03/01 14:27:47;;;;;;;15.07;12.03;;;;;;;4.84;49.61;100005.63;4955928;28;20030;-91
2022/03/01 14:30:13;;;;;;;19.08;14.10;;;;;;;6.51;49.99;100265.41;4955575;28;20031;-94
2022/03/01 14:32:38;;;;;;;13.73;12.25;;;;;;;5.94;49.50;100206.56;4953652;28;21915;-92
2022/03/01 14:35:04;;;;;;;14.40;11.15;;;;;;;6.01;49.71;100212.97;4955880;28;20031;-95
2022/03/01 14:37:30;;;;;;;13.02;11.15;;;;;;;5.82;50.66;100218.06;4955277;28;20110;-93
2022/03/01 14:39:55;;;;;;;14.30;12.23;;;;;;;5.17;50.52;100117.06;4954969;28;20113;-93
2022/03/01 14:42:21;;;;;;;14.05;11.85;;;;;;;6.10;50.50;100255.91;4972492;28;20102;-95
2022/03/01 14:44:46;;;;;;;12.55;10.05;;;;;;;5.85;49.99;100193.38;4960012;28;20500;-95
2022/03/01 14:47:12;;;;;;;12.20;10.90;;;;;;;5.51;49.66;100098.53;4961594;28;20142;-96
2022/03/01 14:49:39;;;;;;;14.00;11.93;;;;;;;6.82;49.04;100268.00;4963108;28;20117;-95
2022/03/01 14:52:06;;;;;;;13.38;10.48;;;;;;;6.92;48.68;100238.16;4961846;28;20163;-96
2022/03/01 14:54:32;;;;;;;13.68;12.18;;;;;;;6.38;48.67;100115.34;4962155;28;20078;-96
2022/03/01 14:56:57;;;;;;;17.25;14.07;;;;;;;7.07;47.94;100206.25;4957026;28;20063;-96
2022/03/01 14:59:23;;;;;;;18.38;13.13;;;;;;;7.21;47.79;100205.81;4959210;28;20500;-96
2022/03/01 15:01:49;;;;;;;15.85;11.57;;;;;;;7.64;47.51;100261.34;4959844;28;20027;-96
2022/03/01 15:04:14;;;;;;;16.92;12.88;;;;;;;7.72;46.70;100247.50;4960163;28;20042;-96
2022/03/01 15:06:40;;;;;;;19.65;15.85;;;;;;;7.14;46.94;100153.00;4957895;28;20464;-96
2022/03/01 15:09:06;;;;;;;18.02;14.13;;;;;;;7.87;46.43;100253.13;4951902;28;20121;-96
2022/03/01 15:11:31;;;;;;;15.98;13.18;;;;;;;7.82;46.47;100235.16;4960397;28;20492;-95
2022/03/01 15:13:58;;;;;;;16.92;13.38;;;;;;;7.55;46.59;100259.56;4961973;28;20500;-96
2022/03/01 15:16:25;;;;;;;15.48;12.65;;;;;;;6.28;46.60;100119.75;4975397;28;20496;-96
2022/03/01 15:18:50;;;;;;;16.05;12.43;;;;;;;6.24;47.06;100163.75;4959586;28;20544;-96
2022/03/01 15:21:16;;;;;;;16.85;13.13;;;;;;;5.88;47.93;100161.66;4958778;28;20085;-96
2022/03/01 15:23:42;;;;;;;16.77;14.25;;;;;;;6.36;48.47;100261.50;4959160;28;20097;-96
2022/03/01 15:26:08;;;;;;;17.27;13.93;;;;;;;6.17;48.71;100285.03;4958339;28;20035;-96
2022/03/01 15:28:34;;;;;;;16.37;12.27;;;;;;;6.02;48.90;100276.69;4959957;28;20029;-96
2022/03/01 15:31:01;;;;;;;14.98;11.75;;;;;;;4.83;48.77;100106.00;4960703;28;20023;-96
2022/03/01 15:33:26;;;;;;;15.93;12.57;;;;;;;5.55;49.28;100252.66;4945237;29;20035;-95
2022/03/01 15:35:53;;;;;;;15.00;12.30;;;;;;;4.72;49.82;100108.69;4973277;28;20110;-96
2022/03/01 15:41:19;;;;;;;14.87;12.17;;;;;;;4.37;50.09;100064.47;5018098;23;20055;-93
2022/03/01 15:43:44;;;;;;;18.50;13.47;;;;;;;5.31;50.21;100220.66;4979951;28;20088;-93
2022/03/01 15:46:10;;;;;;;18.47;14.10;;;;;;;5.04;50.00;100193.19;4978276;28;20030;-96
2022/03/01 15:48:37;;;;;;;15.77;12.10;;;;;;;4.72;50.11;100155.75;4978167;28;20022;-94
2022/03/01 15:51:03;;;;;;;17.37;12.80;;;;;;;4.13;50.38;100034.16;4968666;28;20049;-95
2022/03/01 15:53:29;;;;;;;17.27;12.60;;;;;;;3.18;50.01;99930.44;4991198;28;20031;-95
2022/03/01 15:55:54;;;;;;;18.63;13.47;;;;;;;4.24;50.07;100046.34;4981351;28;20025;-95
2022/03/01 15:58:20;;;;;;;25.97;17.30;;;;;;;5.38;50.10;100263.72;4979532;28;20030;-94
2022/03/01 16:00:45;;;;;;;22.52;14.98;;;;;;;5.53;49.79;100280.78;4985188;28;20026;-94
2022/03/01 16:03:11;;;;;;;19.53;11.43;;;;;;;5.17;50.38;100265.47;4983434;28;20011;-95
2022/03/01 16:05:38;;;;;;;20.50;13.63;;;;;;;3.40;49.94;99971.31;4964902;28;20035;-94
2022/03/01 16:08:04;;;;;;;19.10;12.87;;;;;;;5.54;50.23;100286.84;4987729;28;20488;-93
2022/03/01 16:10:32;;;;;;;18.63;14.90;;;;;;;4.21;50.07;100045.78;4979528;28;20035;-93
2022/03/01 16:12:57;;;;;;;19.57;14.63;;;;;;;3.81;50.02;100025.50;4967754;29;20027;-94
2022/03/01 16:15:23;;;;;;;22.07;16.17;;;;;;;4.19;50.25;100053.75;4960850;28;20500;-94
2022/03/01 16:17:48;;;;;;;22.93;17.40;;;;;;;5.25;50.25;100237.72;4959408;28;20027;-92
2022/03/01 16:20:14;;;;;;;21.17;17.30;;;;;;;4.76;50.55;100146.69;4961398;28;20026;-94
2022/03/01 16:22:40;;;;;;;22.37;17.97;;;;;;;5.22;50.67;100239.75;4958701;28;20086;-94
2022/03/01 16:25:06;;;;;;;24.50;17.50;;;;;;;4.55;50.29;100124.91;4958707;28;20031;-96
2022/03/01 16:27:32;;;;;;;22.77;17.50;;;;;;;5.30;50.33;100250.44;4958619;28;20026;-94
2022/03/01 16:29:57;;;;;;;23.57;18.57;;;;;;;5.00;50.24;100214.50;4959815;28;20022;-94
2022/03/01 16:32:23;;;;;;;24.50;19.00;;;;;;;5.53;50.50;100303.50;4978045;28;20055;-95
2022/03/01 16:34:48;;;;;;;26.97;19.53;;;;;;;4.85;50.53;100172.09;4968155;28;20019;-94
2022/03/01 16:37:15;;;;;;;27.70;20.53;;;;;;;4.47;50.83;100134.22;4983519;28;20014;-94
2022/03/01 16:39:43;;;;;;;21.93;15.90;;;;;;;5.24;50.81;100245.69;4982707;28;20054;-94
2022/03/01 16:42:12;;;;;;;20.53;15.63;;;;;;;5.30;50.45;100292.31;4982955;28;20095;-95
2022/03/01 16:44:38;;;;;;;26.93;18.47;;;;;;;4.69;50.77;100167.31;4983401;28;20042;-93
2022/03/01 16:47:08;;;;;;;20.77;15.57;;;;;;;5.08;50.77;100227.78;4983140;28;20046;-93
2022/03/01 16:49:35;;;;;;;17.00;12.77;;;;;;;3.61;50.55;100040.09;4963934;28;20023;-93
2022/03/01 16:52:03;;;;;;;13.13;11.47;;;;;;;4.22;50.87;100120.63;4962605;28;20026;-94
2022/03/01 16:57:18;;;;;;;14.20;11.90;;;;;;;5.35;50.73;100277.06;5063295;23;20087;-93
2022/03/01 16:59:46;;;;;;;17.20;14.20;;;;;;;4.39;50.64;100154.91;4978302;28;20045;-94
2022/03/01 17:02:12;;;;;;;17.10;13.97;;;;;;;4.40;50.57;100172.25;4978233;28;20515;-93
2022/03/01 17:04:37;;;;;;;21.97;17.57;;;;;;;3.89;50.35;100054.44;4978789;28;20026;-94
2022/03/01 17:07:03;;;;;;;19.00;15.67;;;;;;;4.02;50.93;100075.19;4979331;28;20085;-94
2022/03/01 17:09:29;;;;;;;21.60;19.30;;;;;;;5.27;51.03;100324.81;4979537;28;20033;-92
2022/03/01 17:11:54;;;;;;;22.67;18.27;;;;;;;4.41;51.08;100176.50;4979700;28;20022;-93
2022/03/01 17:14:20;;;;;;;23.43;19.83;;;;;;;4.29;50.95;100163.59;4984427;28;20030;-92
2022/03/01 17:16:45;;;;;;;24.03;17.37;;;;;;;5.03;50.88;100270.03;4987575;28;20065;-93
2022/03/01 17:19:11;;;;;;;23.17;17.80;;;;;;;5.33;51.11;100345.28;4979870;28;20026;-94
2022/03/01 17:21:37;;;;;;;22.17;17.43;;;;;;;4.95;51.08;100277.69;4978750;28;20058;-93
2022/03/01 17:24:04;;;;;;;20.47;14.53;;;;;;;5.30;51.24;100321.94;4977384;28;20121;-94
2022/03/01 17:26:32;;;;;;;16.10;13.00;;;;;;;4.85;51.41;100250.59;4980095;28;20030;-93
2022/03/01 17:28:58;;;;;;;20.33;15.27;;;;;;;5.23;51.30;100327.81;4985169;28;20022;-91
2022/03/01 17:31:23;;;;;;;25.03;18.83;;;;;;;5.11;51.48;100306.06;4991438;28;20030;-92
2022/03/01 17:33:49;;;;;;;27.07;19.97;;;;;;;4.65;51.83;100238.28;4985723;28;20033;-94
2022/03/01 17:38:58;;;;;;;35.73;25.13;;;;;;;4.61;51.81;100227.25;5183351;23;20042;-92
2022/03/01 17:44:07;;;;;;;34.37;25.50;;;;;;;4.75;51.84;100258.34;5372549;23;20054;-91
2022/03/01 17:46:32;;;;;;;39.07;26.20;;;;;;;4.19;52.41;100200.09;5000129;28;20065;-90
2022/03/01 17:51:43;;;;;;;23.97;17.80;;;;;;;4.88;52.32;100322.78;5146741;23;20043;-91
2022/03/01 17:56:44;;;;;;;19.23;14.83;;;;;;;1.91;51.82;99841.19;5316358;23;20030;-92
2022/03/01 18:09:30;;;;;;;24.03;17.17;;;;;;;4.70;52.33;100327.69;5842419;23;20123;-91
2022/03/01 18:11:55;;;;;;;24.07;18.47;;;;;;;4.71;52.77;100334.59;5458343;23;20058;-92
2022/03/01 18:16:56;;;;;;;16.07;13.00;;;;;;;3.34;52.46;100110.97;5746500;23;20226;-92
2022/03/01 18:34:59;;;;;;;17.27;14.03;;;;;;;3.63;53.13;100162.69;5623748;23;20052;-92
2022/03/01 18:40:01;;;;;;;20.43;17.47;;;;;;;3.39;53.51;100150.59;5919419;23;20070;-92
